Tiempo atmosférico en la estación meteorológica de San Andrés y Sauces, Santa Cruz de Tenerife (362 m.)



Fecha
DESCASC
Temp. máxima en grados centígrados (hora)
DESCASC
Temp. mínima en grados centígrados (hora)
DESCASC
Temp. media en grados centígrados
DESCASC
Racha de viento máxima en m/sg (hora)
DESCASC
Velocidad máxima media en intervalos de 10 minutos(hora)
DESCASC
Precipitaciones diarias en mm
DESCASC
Precipitaciones de 00:00 a 06:00 en mm
DESCASC
Precipitaciones de 06:00 a 12:00 en mm
DESCASC
Precipitaciones de 12:00 a 18:00 en mm
DESCASC
Precipitaciones de 18:00 a 24:00 en mm
DESCASC
13-06-2019 21.1 (12:40) 15.4 (05:40) 18.3 6.67 (13:00) 3.61 (12:40) 0.2 0.2 0 0 0
12-06-2019 20.2 (15:50) 15.8 (08:40) 18 6.94 (07:50) 4.72 (07:50) 9.6 2.2 7.4 0 0
11-06-2019 20.3 (15:50) 15.5 (01:20) 17.9 8.61 (08:40) 5.83 (12:50) 2.2 0 0.2 0.4 1.6
10-06-2019 22.4 (14:50) 15.8 (01:10) 19.1 8.06 (13:50) 5 (13:40) 0 0 0 0 0
09-06-2019 20.9 (15:30) 15 (00:00) 17.9 8.61 (13:00) 5.28 (12:10) 0 0 0 0 0
08-06-2019 18.9 (14:50) 15.1 (00:00) 17 6.94 (09:20) 4.44 (09:20) 16 9.2 6.8 0 0
07-06-2019 24 (14:50) 15.4 (00:00) 19.7 6.67 (05:10) 4.44 (05:00) 0 0 0 0 0
06-06-2019 21 (14:50) 15.9 (00:00) 18.4 7.78 (14:10) 5 (14:20) 0 0 0 0 0
05-06-2019 20.2 (16:50) 16.5 (00:00) 18.4 6.94 (01:00) 4.44 (13:20) 0 0 0 0 0
04-06-2019 22.7 (15:30) 17.4 (00:00) 20.1 6.67 (17:00) 3.89 (16:10) 0 0 0 0 0
03-06-2019 28.6 (11:10) 19.3 (00:00) 23.9 6.67 (01:40) 4.44 (06:20) 0 0 0 0 0
02-06-2019 24.8 (15:40) 17.5 (00:00) 21.1 6.39 (23:10) 3.89 (22:40) 0 0 0 0 0
01-06-2019 22.7 (13:20) 15.4 (00:00) 19.1 7.5 (16:50) 3.89 (15:20) 0 0 0 0 0
31-05-2019 22 (14:30) 14.2 (00:00) 18.1 9.44 (17:00) 6.39 (17:50) 0 0 0 0 0
30-05-2019 21.3 (14:40) 14.8 (00:00) 18 9.72 (18:50) 6.94 (18:50) 0 0 0 0 0
29-05-2019 20.9 (14:50) 15.1 (00:00) 18 7.5 (19:10) 4.44 (19:10) 0.2 0.2 0 0 0
28-05-2019 21 (11:20) 15.9 (00:00) 18.4 7.22 (12:40) 5 (12:50) 0.8 0 0 0 0.8
27-05-2019 22.2 (13:20) 15 (00:00) 18.6 5.56 (15:50) 3.61 (15:40) 0 0 0 0 0
26-05-2019 23.3 (13:20) 15.1 (00:00) 19.2 6.67 (11:50) 4.17 (11:50) 0 0 0 0 0
25-05-2019 19.3 (12:50) 15.6 (00:00) 17.4 6.11 (11:40) 4.17 (02:40) 0.8 0 0.8 0 0
24-05-2019 22.4 (13:00) 14.9 (00:00) 18.6 8.61 (14:50) 5.28 (00:20) 0 0 0 0 0
23-05-2019 22 (14:30) 15.5 (00:00) 18.8 7.78 (13:50) 5 (04:20) 0.2 0.2 0 0 0
22-05-2019 21.5 (13:10) 16.1 (00:00) 18.8 7.5 (14:10) 5 (14:10) 0.4 0 0.2 0.2 0
21-05-2019 20.8 (15:10) 14.6 (03:50) 17.7 7.78 (12:30) 5.83 (14:00) 0 0 0 0 0
20-05-2019 22.4 (12:50) 15.3 (03:20) 18.8 7.78 (13:00) 5 (12:50) 0.4 0 0 0 0.4
19-05-2019 18.2 (14:20) 15.6 (00:00) 16.9 6.94 (03:40) 4.17 (03:30) 0.2 0 0 0.2 0
18-05-2019 19.1 (15:40) 15.5 (00:00) 17.3 8.33 (16:50) 5.83 (16:30) 0 0 0 0 0
17-05-2019 20.9 (12:20) 16.1 (00:00) 18.5 8.61 (13:00) 5.83 (12:20) 0 0 0 0 0

Gráficas

Temp. máximas Temp. mínimas Temp. medias Precipitaciones Rachas de viento máximas Velocidades máximas media en intervalos de 10 minutos

Datos horarios

Fecha y hora oficial Temperatura (ºC) Velocidad del viento (km/h) Dirección del viento Racha (km/h) Dirección de racha Precipitación (mm) Presión (hPa) Tendencia (hPa) Humedad (%)
2019-06-15 23:00:00 15.2 10 Sudoeste 13 Oeste 0 -- -- 88
2019-06-15 22:00:00 15.6 9 Sudoeste 11 Sudoeste 0 -- -- 86
2019-06-15 21:00:00 17 4 Sur 9 Este 0 -- -- 82
2019-06-15 20:00:00 17.6 5 Este 14 Este 0 -- -- 76
2019-06-15 19:00:00 17.9 8 Este 16 Este 0 -- -- 74
2019-06-15 18:00:00 17.9 5 Sur 11 Sudeste 0 -- -- 76
2019-06-15 17:00:00 17.7 6 Sudeste 14 Sudeste 0 -- -- 76
2019-06-15 16:00:00 17.5 6 Sudeste 18 Este 0 -- -- 76
2019-06-15 15:00:00 17.7 6 Sudeste 17 Este 0 -- -- 74
2019-06-15 14:00:00 18 7 Este 19 Este 0 -- -- 75
2019-06-15 13:00:00 18.4 8 Este 20 Este 0 -- -- 71
2019-06-15 12:00:00 19 12 Este 26 Este 0 -- -- 66
2019-06-15 11:00:00 19.4 10 Este 21 Este 0 -- -- 65
2019-06-15 10:00:00 17.8 9 Sudeste 16 Este 0 -- -- 71
2019-06-15 09:00:00 16 7 Sudoeste 13 Sudeste 0 -- -- 81
2019-06-15 08:00:00 16 9 Sur 15 Sudoeste 0 -- -- 82
2019-06-15 07:00:00 15.9 6 Sur 13 Sudoeste 0 -- -- 84
2019-06-15 06:00:00 15.7 10 Sudoeste 15 Sudoeste 0 -- -- 85
2019-06-15 05:00:00 15.5 9 Sudoeste 18 Sudoeste 0 -- -- 75
2019-06-15 04:00:00 15.6 13 Sudoeste 18 Sudoeste 0 -- -- 74
2019-06-15 03:00:00 15.8 14 Sudoeste 17 Sudoeste 0 -- -- 75
2019-06-15 02:00:00 16.2 13 Sudoeste 16 Sudoeste 0 -- -- 77
2019-06-15 01:00:00 16.1 10 Sudoeste 17 Sudoeste 0 -- -- 76
2019-06-15 00:00:00 15.6 12 Sudoeste 17 Sudoeste 0 -- -- 78
2019-06-14 23:00:00 15.1 14 Sudoeste 18 Sudoeste 0 -- -- 79
2019-06-14 22:00:00 15.3 12 Sudoeste 16 Sudoeste 0 -- -- 75
2019-06-14 21:00:00 16.4 9 Sudoeste 12 Sudoeste 0 -- -- 75
2019-06-14 20:00:00 18.8 6 Sur 12 Sudeste 0 -- -- 65
2019-06-14 19:00:00 18.7 9 Este 17 Nordeste 0 -- -- 63
2019-06-14 18:00:00 18.7 7 Sudeste 19 Nordeste 0 -- -- 73
2019-06-14 17:00:00 18.5 9 Este 18 Este 0 -- -- 73
2019-06-14 16:00:00 17.6 7 Sudoeste 19 Este 0 -- -- 77
2019-06-14 15:00:00 18 12 Este 23 Este 0 -- -- 77
2019-06-14 14:00:00 18.6 16 Este 25 Este 0 -- -- 72
2019-06-14 13:00:00 19.3 11 Este 21 Este 0 -- -- 73
2019-06-14 12:00:00 21.1 14 Este 24 Este 0 -- -- 66
2019-06-14 11:00:00 21.4 10 Este 18 Este 0 -- -- 65
2019-06-14 10:00:00 18.4 9 Este 14 Este 0 -- -- 73
2019-06-14 09:00:00 16.5 2 Sudoeste 12 Oeste 0 -- -- 78
2019-06-14 08:00:00 14.9 8 Oeste 14 Oeste 0 -- -- 77
2019-06-14 07:00:00 14.7 9 Oeste 16 Oeste 0 -- -- 74
2019-06-14 06:00:00 14.8 11 Sudoeste 17 Sudoeste 0 -- -- 79
2019-06-14 05:00:00 14.7 8 Sudoeste 13 Oeste 0 -- -- 80
2019-06-14 04:00:00 15.5 9 Sudoeste 15 Sudoeste 0 -- -- 81
2019-06-14 03:00:00 15 11 Sudoeste 16 Sudoeste 0 -- -- 79
2019-06-14 02:00:00 14.9 12 Sudoeste 16 Sudoeste 0 -- -- 80
2019-06-14 01:00:00 15 13 Sudoeste 16 Sudoeste 0 -- -- 84
2019-06-14 00:00:00 15.6 10 Sudoeste 12 Sudoeste 0 -- -- 85
2019-06-13 23:00:00 16.2 4 Sudoeste 7 Sur 0 -- -- 85
2019-06-13 22:00:00 16.4 3 Nordeste 13 Este 0 -- -- 83
2019-06-13 21:00:00 16.9 10 Nordeste 17 Este 0 -- -- 83
2019-06-13 20:00:00 17.4 8 Nordeste 14 Nordeste 0 -- -- 80
2019-06-13 19:00:00 17.9 10 Nordeste 16 Nordeste 0 -- -- 78
2019-06-13 18:00:00 18.6 8 Nordeste 19 Nordeste 0 -- -- 75
2019-06-13 17:00:00 19.2 9 Nordeste 19 Nordeste 0 -- -- 70
2019-06-13 16:00:00 19.3 11 Nordeste 22 Este 0 -- -- 69
2019-06-13 15:00:00 19.6 8 Este 20 Nordeste 0 -- -- 68
2019-06-13 14:00:00 20.2 5 Norte 19 Este 0 -- -- 65
2019-06-13 13:00:00 20.4 12 Nordeste 24 Este 0 -- -- 67
2019-06-13 12:00:00 19.3 12 Nordeste 17 Nordeste 0 -- -- 72
2019-06-13 11:00:00 17.4 4 Noroeste 19 Norte 0 -- -- 76
2019-06-13 10:00:00 17 9 Nordeste 17 Norte 0 -- -- 81
2019-06-13 09:00:00 16.9 5 Norte 12 Sudoeste 0 -- -- 80
2019-06-13 08:00:00 15.9 11 Sudoeste 17 Sudoeste 0 -- -- 78
2019-06-13 07:00:00 15.7 12 Sudoeste 16 Sudoeste 0 -- -- 80
2019-06-13 06:00:00 15.4 9 Sudoeste 13 Sudoeste 0 -- -- 86
2019-06-13 05:00:00 15.5 5 Oeste 14 Oeste 0.2 -- -- 89
2019-06-13 04:00:00 16 7 Oeste 20 Oeste 0 -- -- 76
2019-06-13 03:00:00 16.2 7 Oeste 15 Oeste 0 -- -- 78
2019-06-13 02:00:00 16.2 7 Oeste 17 Oeste 0 -- -- 79
2019-06-13 01:00:00 16.4 10 Oeste 18 Oeste 0 -- -- 79
2019-06-13 00:00:00 16.4 7 Noroeste 16 Oeste 0 -- -- 84
2019-06-12 23:00:00 16.4 6 Noroeste 12 Norte 0 -- -- 84
2019-06-12 22:00:00 16.4 5 Norte 18 Norte 0 -- -- 87
2019-06-12 21:00:00 16.5 11 Norte 17 Nordeste 0 -- -- 91
2019-06-12 20:00:00 16.9 11 Nordeste 19 Nordeste 0 -- -- 91
2019-06-12 19:00:00 17.4 13 Nordeste 22 Norte 0 -- -- 88
2019-06-12 18:00:00 19.2 15 Nordeste 22 Nordeste 0 -- -- 85
2019-06-12 17:00:00 19.7 6 Norte 19 Norte 0 -- -- 71
2019-06-12 16:00:00 20 7 Norte 15 Este 0 -- -- 67
2019-06-12 15:00:00 19.3 5 Norte 16 Nordeste 0 -- -- 70
2019-06-12 14:00:00 17.7 6 Nordeste 18 Nordeste 0 -- -- 90
2019-06-12 13:00:00 18.6 9 Nordeste 18 Nordeste 0 -- -- 83
2019-06-12 12:00:00 17 11 Sudoeste 14 Sur 0.4 -- -- 90
2019-06-12 11:00:00 17 7 Oeste 21 Nordeste 0.8 -- -- 95
2019-06-12 10:00:00 16.3 7 Nordeste 18 Nordeste 1.6 -- -- 97
2019-06-12 09:00:00 16.1 6 Oeste 17 Norte 2.6 -- -- 99
2019-06-12 08:00:00 15.9 10 Norte 25 Nordeste 0.4 -- -- 98
2019-06-12 07:00:00 16.1 6 Oeste 16 Noroeste 1.6 -- -- 97
2019-06-12 06:00:00 16.3 9 Oeste 17 Noroeste 0.6 -- -- 95
2019-06-12 05:00:00 16.3 3 Oeste 10 Oeste 1 -- -- 96
2019-06-12 04:00:00 16.3 8 Norte 17 Sudoeste 0.2 -- -- 96
2019-06-12 03:00:00 16.7 6 Sur 14 Sudoeste 0.2 -- -- 92
2019-06-12 02:00:00 16.7 4 Oeste 10 Noroeste 0 -- -- 92
2019-06-12 01:00:00 16.7 6 Oeste 13 Sudoeste 0.2 -- -- 94
2019-06-12 00:00:00 16.7 11 Oeste 18 Oeste 0.2 -- -- 93
2019-06-11 23:00:00 17 10 Oeste 18 Noroeste 0 -- -- 90
2019-06-11 22:00:00 17 8 Oeste 16 Oeste 0.8 -- -- 91
2019-06-11 21:00:00 17.4 9 Oeste 20 Noroeste 0 -- -- 90
2019-06-11 20:00:00 17.2 10 Noroeste 23 Norte 0.6 -- -- 91
2019-06-11 19:00:00 18.5 8 Norte 23 Noroeste 0 -- -- 85
2019-06-11 18:00:00 18.5 10 Noroeste 22 Noroeste 0 -- -- 84
2019-06-11 17:00:00 18.7 12 Norte 28 Norte 0 -- -- 86
2019-06-11 16:00:00 20.3 12 Norte 28 Norte 0 -- -- 74
2019-06-11 15:00:00 19.7 13 Norte 27 Norte 0 -- -- 81
2019-06-11 14:00:00 18.9 13 Norte 25 Norte 0.4 -- -- 88
2019-06-11 13:00:00 18.4 14 Norte 30 Norte 0 -- -- 88
2019-06-11 12:00:00 19.3 13 Noroeste 27 Noroeste 0 -- -- 77
2019-06-11 11:00:00 19.1 12 Norte 23 Norte 0 -- -- 81
2019-06-11 10:00:00 17.3 12 Norte 27 Nordeste 0.2 -- -- 90
2019-06-11 09:00:00 17.7 14 Sudoeste 31 Sudoeste 0 -- -- 82
2019-06-11 08:00:00 17.2 13 Sudoeste 23 Sudoeste 0 -- -- 79
2019-06-11 07:00:00 16.7 9 Oeste 22 Sudoeste 0 -- -- 80
2019-06-11 06:00:00 16.1 5 Norte 21 Oeste 0 -- -- 85
2019-06-11 05:00:00 16.3 3 Sudoeste 19 Sudoeste 0 -- -- 83
2019-06-11 04:00:00 16.2 5 Noroeste 16 Oeste 0 -- -- 83
2019-06-11 03:00:00 15.9 9 Sudoeste 21 Sudoeste 0 -- -- 82
2019-06-11 02:00:00 15.6 7 Oeste 11 Oeste 0 -- -- 83
2019-06-11 01:00:00 15.7 4 Oeste 11 Oeste 0 -- -- 83
2019-06-11 00:00:00 16.4 5 Oeste 13 Oeste 0 -- -- 82
2019-06-10 23:00:00 16.7 5 Oeste 13 Nordeste 0 -- -- 83
2019-06-10 22:00:00 16.9 10 Nordeste 15 Nordeste 0 -- -- 84
2019-06-10 21:00:00 17.3 8 Nordeste 21 Este 0 -- -- 84
2019-06-10 20:00:00 18 10 Este 17 Nordeste 0 -- -- 82
2019-06-10 19:00:00 18.2 6 Nordeste 19 Norte 0 -- -- 79
2019-06-10 18:00:00 18.4 13 Nordeste 22 Norte 0 -- -- 76
2019-06-10 17:00:00 19.9 6 Norte 26 Nordeste 0 -- -- 72
2019-06-10 16:00:00 19.8 12 Nordeste 26 Este 0 -- -- 73
2019-06-10 15:00:00 21.3 14 Nordeste 26 Nordeste 0 -- -- 71
2019-06-10 14:00:00 21.7 13 Nordeste 29 Este 0 -- -- 68
2019-06-10 13:00:00 21.1 10 Nordeste 25 Nordeste 0 -- -- 62
2019-06-10 12:00:00 20.7 12 Nordeste 24 Nordeste 0 -- -- 62
2019-06-10 11:00:00 19.5 7 Sudeste 19 Este 0 -- -- 67
2019-06-10 10:00:00 17.9 10 Sur 19 Sudoeste 0 -- -- 71
2019-06-10 09:00:00 17 4 Sur 16 Sudoeste 0 -- -- 74
2019-06-10 08:00:00 16.4 6 Nordeste 11 Sudoeste 0 -- -- 77
2019-06-10 07:00:00 16.4 7 Sudoeste 13 Sudoeste 0 -- -- 80
2019-06-10 06:00:00 16.4 7 Sudoeste 17 Sudoeste 0 -- -- 79
2019-06-10 05:00:00 16.2 10 Sudoeste 15 Sudoeste 0 -- -- 78
2019-06-10 04:00:00 16.3 6 Sur 18 Sudoeste 0 -- -- 79
2019-06-10 03:00:00 16.1 14 Sudoeste 20 Sudoeste 0 -- -- 80
2019-06-10 02:00:00 15.9 11 Sudoeste 18 Sudoeste 0 -- -- 79
2019-06-10 01:00:00 15.9 12 Sudoeste 14 Sudoeste 0 -- -- 81
2019-06-10 00:00:00 16.3 7 Sur 18 Sudoeste 0 -- -- 78
2019-06-09 23:00:00 16.6 5 Sudeste 12 Nordeste 0 -- -- 77
2019-06-09 22:00:00 16.8 6 Este 14 Este 0 -- -- 77
2019-06-09 21:00:00 17 7 Este 15 Este 0 -- -- 77
2019-06-09 20:00:00 17.6 8 Nordeste 19 Este 0 -- -- 75
2019-06-09 19:00:00 18.2 10 Nordeste 20 Norte 0 -- -- 74
2019-06-09 18:00:00 18.7 13 Nordeste 21 Este 0 -- -- 73
2019-06-09 17:00:00 19.1 11 Este 29 Nordeste 0 -- -- 75
2019-06-09 16:00:00 20.7 15 Este 24 Este 0 -- -- 69
2019-06-09 15:00:00 19.7 10 Este 21 Nordeste 0 -- -- 68
2019-06-09 14:00:00 18.9 13 Este 26 Sudoeste 0 -- -- 69
2019-06-09 13:00:00 18.9 12 Sur 31 Oeste 0 -- -- 62
2019-06-09 12:00:00 19.7 16 Este 26 Este 0 -- -- 66
2019-06-09 11:00:00 18.5 14 Nordeste 20 Nordeste 0 -- -- 71
2019-06-09 10:00:00 17 5 Este 15 Este 0 -- -- 75
2019-06-09 09:00:00 17.4 11 Este 19 Este 0 -- -- 71
2019-06-09 08:00:00 16 9 Sudeste 17 Este 0 -- -- 79
2019-06-09 07:00:00 15.8 6 Sudoeste 13 Sudeste 0 -- -- 83
2019-06-09 06:00:00 15.9 7 Sudoeste 13 Sudoeste 0 -- -- 84
2019-06-09 05:00:00 16.2 9 Sudoeste 29 Sudoeste 0 -- -- 74
2019-06-09 04:00:00 15.7 12 Sudoeste 19 Sudoeste 0 -- -- 78
2019-06-09 03:00:00 15.2 14 Sudoeste 17 Sudoeste 0 -- -- 81
2019-06-09 02:00:00 15.3 9 Sudoeste 15 Sur 0 -- -- 78
2019-06-09 01:00:00 15.2 9 Oeste 16 Sudoeste 0 -- -- 76
2019-06-09 00:00:00 15.1 9 Oeste 21 Sudoeste 0 -- -- 77
2019-06-08 23:00:00 15.1 12 Sudoeste 21 Sudoeste 0 -- -- 75
2019-06-08 22:00:00 15.3 14 Sudoeste 21 Sudoeste 0 -- -- 77
2019-06-08 21:00:00 16.1 9 Sudoeste 14 Nordeste 0 -- -- 80
2019-06-08 20:00:00 17 10 Nordeste 18 Norte 0 -- -- 78
2019-06-08 19:00:00 18.6 6 Nordeste 12 Norte 0 -- -- 72
2019-06-08 18:00:00 18.2 9 Nordeste 18 Norte 0 -- -- 76
2019-06-08 17:00:00 18.2 12 Nordeste 18 Norte 0 -- -- 79
2019-06-08 16:00:00 18.6 10 Nordeste 21 Nordeste 0 -- -- 75
2019-06-08 15:00:00 18.8 13 Nordeste 22 Nordeste 0 -- -- 74
2019-06-08 14:00:00 17.5 12 Nordeste 18 Nordeste 0 -- -- 80
2019-06-08 13:00:00 17.7 8 Nordeste 15 Este 0 -- -- 86
2019-06-08 12:00:00 17.5 10 Nordeste 18 Este 0 -- -- 89
2019-06-08 11:00:00 16.9 11 Nordeste 21 Nordeste 0 -- -- 91
2019-06-08 10:00:00 16.5 14 Nordeste 25 Este 0.2 -- -- 94
2019-06-08 09:00:00 16.3 6 Sudoeste 15 Sudoeste 3.6 -- -- 95
2019-06-08 08:00:00 16 8 Sudoeste 24 Sudoeste 2.8 -- -- 93
2019-06-08 07:00:00 16.6 4 Este 22 Nordeste 0.2 -- -- 94
2019-06-08 06:00:00 16.6 12 Nordeste 23 Este 1.6 -- -- 98
2019-06-08 05:00:00 16.9 12 Nordeste 15 Nordeste 3.4 -- -- 97
2019-06-08 04:00:00 16.7 3 Nordeste 18 Este 2.4 -- -- 97
2019-06-08 03:00:00 17.1 5 Nordeste 18 Norte 1.8 -- -- 97
2019-06-08 02:00:00 17.7 6 Nordeste 12 Nordeste 0 -- -- 93
2019-06-08 01:00:00 18 3 Oeste 8 Norte 0 -- -- 89
2019-06-08 00:00:00 17.9 4 Noroeste 10 Norte 0 -- -- 88
2019-06-07 23:00:00 17.8 5 Norte 14 Norte 0 -- -- 90
2019-06-07 22:00:00 18.2 6 Norte 15 Norte 0 -- -- 89
2019-06-07 21:00:00 18.3 8 Norte 13 Norte 0 -- -- 88
2019-06-07 20:00:00 19.1 7 Norte 12 Norte 0 -- -- 78
2019-06-07 19:00:00 20.2 6 Nordeste 14 Nordeste 0 -- -- 72
2019-06-07 18:00:00 21.9 10 Nordeste 18 Norte 0 -- -- 63
2019-06-07 17:00:00 22.8 11 Nordeste 20 Nordeste 0 -- -- 60
2019-06-07 16:00:00 23.6 11 Nordeste 21 Nordeste 0 -- -- 56
2019-06-07 15:00:00 24 12 Nordeste 22 Este 0 -- -- 55
2019-06-07 14:00:00 23.3 10 Nordeste 22 Este 0 -- -- 54
2019-06-07 13:00:00 22.5 11 Nordeste 20 Nordeste 0 -- -- 55
2019-06-07 12:00:00 22 11 Nordeste 18 Este 0 -- -- 56
2019-06-07 11:00:00 21 6 Nordeste 15 Nordeste 0 -- -- 58
2019-06-07 10:00:00 20 7 Nordeste 13 Sudoeste 0 -- -- 66
2019-06-07 09:00:00 17.2 4 Sudoeste 9 Sudoeste 0 -- -- 74
2019-06-07 08:00:00 16.6 4 Norte 13 Noroeste 0 -- -- 80
2019-06-07 07:00:00 16.5 7 Oeste 20 Oeste 0 -- -- 76
2019-06-07 06:00:00 16.2 13 Sudoeste 24 Sudoeste 0 -- -- 76
2019-06-07 05:00:00 15.8 16 Sudoeste 22 Oeste 0 -- -- 75
2019-06-07 04:00:00 15.6 13 Sudoeste 19 Oeste 0 -- -- 78
2019-06-07 03:00:00 15.9 8 Noroeste 17 Norte 0 -- -- 80
2019-06-07 02:00:00 16.3 11 Norte 20 Norte 0 -- -- 81
2019-06-07 01:00:00 16.5 8 Noroeste 15 Noroeste 0 -- -- 83
2019-06-07 00:00:00 16.7 7 Noroeste 19 Norte 0 -- -- 77
2019-06-06 23:00:00 16.4 11 Oeste 21 Oeste 0 -- -- 72
2019-06-06 22:00:00 16.5 7 Oeste 18 Oeste 0 -- -- 70
2019-06-06 21:00:00 17 6 Oeste 14 Noroeste 0 -- -- 72
2019-06-06 20:00:00 17.5 6 Norte 19 Nordeste 0 -- -- 72
2019-06-06 19:00:00 18.2 10 Nordeste 21 Nordeste 0 -- -- 71
2019-06-06 18:00:00 18.7 8 Norte 24 Norte 0 -- -- 69
2019-06-06 17:00:00 20.6 14 Nordeste 22 Nordeste 0 -- -- 62
2019-06-06 16:00:00 19.3 14 Norte 26 Nordeste 0 -- -- 66
2019-06-06 15:00:00 20.6 14 Este 28 Este 0 -- -- 62
2019-06-06 14:00:00 19.1 16 Nordeste 25 Nordeste 0 -- -- 72
2019-06-06 13:00:00 19.4 12 Nordeste 21 Nordeste 0 -- -- 61
2019-06-06 12:00:00 18.2 8 Nordeste 14 Nordeste 0 -- -- 70
2019-06-06 11:00:00 17 3 Este 23 Nordeste 0 -- -- 78
2019-06-06 10:00:00 16.8 8 Nordeste 14 Norte 0 -- -- 75
2019-06-06 09:00:00 17.1 10 Nordeste 18 Nordeste 0 -- -- 74
2019-06-06 08:00:00 16.2 4 Noroeste 12 Oeste 0 -- -- 77
2019-06-06 07:00:00 16 3 Oeste 9 Noroeste 0 -- -- 79
2019-06-06 06:00:00 16 5 Sudoeste 8 Sudoeste 0 -- -- 81
2019-06-06 05:00:00 16 3 Oeste 13 Norte 0 -- -- 81
2019-06-06 04:00:00 16.2 4 Nordeste 9 Sudoeste 0 -- -- 82
2019-06-06 03:00:00 16.4 6 Sudoeste 11 Sudoeste 0 -- -- 81
2019-06-06 02:00:00 16.3 4 Noroeste 16 Noroeste 0 -- -- 82
2019-06-06 01:00:00 16.6 6 Oeste 14 Sudoeste 0 -- -- 81
2019-06-06 00:00:00 16.8 8 Sudoeste 12 Oeste 0 -- -- 77
2019-06-05 23:00:00 17 3 Oeste 11 Sudoeste 0 -- -- 79
2019-06-05 22:00:00 17.1 5 Nordeste 15 Nordeste 0 -- -- 79
2019-06-05 21:00:00 17.5 13 Nordeste 19 Nordeste 0 -- -- 80
2019-06-05 20:00:00 17.9 5 Nordeste 17 Norte 0 -- -- 81
2019-06-05 19:00:00 18.6 9 Nordeste 17 Norte 0 -- -- 80
2019-06-05 18:00:00 19.4 10 Nordeste 17 Nordeste 0 -- -- 78
2019-06-05 17:00:00 20.1 9 Nordeste 17 Nordeste 0 -- -- 72
2019-06-05 16:00:00 20 8 Nordeste 19 Nordeste 0 -- -- 73
2019-06-05 15:00:00 18.6 12 Nordeste 21 Norte 0 -- -- 85
2019-06-05 14:00:00 18.3 12 Nordeste 23 Este 0 -- -- 90
2019-06-05 13:00:00 18.4 13 Nordeste 19 Este 0 -- -- 92
2019-06-05 12:00:00 19.1 12 Este 21 Este 0 -- -- 84
2019-06-05 11:00:00 18.6 9 Este 17 Nordeste 0 -- -- 89
2019-06-05 10:00:00 19.3 6 Norte 12 Nordeste 0 -- -- 77
2019-06-05 09:00:00 19.3 5 Nordeste 9 Nordeste 0 -- -- 77
2019-06-05 08:00:00 18.3 5 Noroeste 10 Sudoeste 0 -- -- 76
2019-06-05 07:00:00 16.7 6 Oeste 12 Sudoeste 0 -- -- 84
2019-06-05 06:00:00 16.8 4 Oeste 10 Oeste 0 -- -- 83
2019-06-05 05:00:00 17.1 7 Sudoeste 9 Sudoeste 0 -- -- 82
2019-06-05 04:00:00 18.4 4 Nordeste 20 Sudoeste 0 -- -- 78
2019-06-05 03:00:00 18.1 4 Oeste 14 Oeste 0 -- -- 82
2019-06-05 02:00:00 18.1 3 Este 19 Sur 0 -- -- 80
2019-06-05 01:00:00 18.5 14 Oeste 25 Sudoeste 0 -- -- 77
2019-06-05 00:00:00 17.6 8 Oeste 16 Oeste 0 -- -- 79
2019-06-04 23:00:00 17.8 6 Oeste 15 Sudoeste 0 -- -- 78
2019-06-04 22:00:00 17.8 6 Oeste 14 Norte 0 -- -- 82
2019-06-04 21:00:00 18.6 7 Noroeste 16 Noroeste 0 -- -- 76
2019-06-04 20:00:00 19.7 8 Norte 17 Norte 0 -- -- 73
2019-06-04 19:00:00 20.8 10 Norte 21 Nordeste 0 -- -- 71
2019-06-04 18:00:00 21 12 Nordeste 23 Nordeste 0 -- -- 74
2019-06-04 17:00:00 21.8 11 Nordeste 24 Nordeste 0 -- -- 70
2019-06-04 16:00:00 22.4 12 Nordeste 21 Norte 0 -- -- 68
2019-06-04 15:00:00 22.6 13 Nordeste 21 Nordeste 0 -- -- 68
2019-06-04 14:00:00 22.6 13 Nordeste 20 Norte 0 -- -- 67
2019-06-04 13:00:00 21.8 12 Nordeste 21 Nordeste 0 -- -- 69
2019-06-04 12:00:00 21.8 12 Nordeste 18 Nordeste 0 -- -- 72
2019-06-04 11:00:00 21.5 10 Nordeste 17 Nordeste 0 -- -- 74
2019-06-04 10:00:00 20.9 10 Nordeste 15 Nordeste 0 -- -- 75
2019-06-04 09:00:00 20.2 8 Norte 12 Norte 0 -- -- 78
2019-06-04 08:00:00 19.3 5 Oeste 9 Oeste 0 -- -- 49
2019-06-04 07:00:00 17.4 5 Oeste 10 Sudoeste 0 -- -- 50
2019-06-04 06:00:00 17.4 6 Sudoeste 9 Sudoeste 0 -- -- 50
2019-06-04 05:00:00 17.9 6 Sudoeste 8 Sudoeste 0 -- -- 52
2019-06-04 04:00:00 18.6 5 Sudoeste 7 Sudoeste 0 -- -- 50
2019-06-04 03:00:00 20.1 4 Sudoeste 15 Sudoeste 0 -- -- 43
2019-06-04 02:00:00 21.4 12 Sudoeste 17 Sudoeste 0 -- -- 35
2019-06-04 01:00:00 21.6 12 Sudoeste 16 Sudoeste 0 -- -- 37
2019-06-04 00:00:00 21.6 11 Sudoeste 17 Sudoeste 0 -- -- 38
2019-06-03 23:00:00 21.8 9 Sudoeste 19 Sudoeste 0 -- -- 42
2019-06-03 22:00:00 19.8 8 Sudoeste 14 Sudoeste 0 -- -- 49
2019-06-03 21:00:00 19.9 3 Sudoeste 6 Sudoeste 0 -- -- 62
2019-06-03 20:00:00 21.2 3 Nordeste 8 Nordeste 0 -- -- 79
2019-06-03 19:00:00 24.1 3 Nordeste 8 Este 0 -- -- 67
2019-06-03 18:00:00 23.9 5 Nordeste 10 Nordeste 0 -- -- 69
2019-06-03 17:00:00 24.1 7 Nordeste 15 Nordeste 0 -- -- 66
2019-06-03 16:00:00 24.9 10 Nordeste 16 Nordeste 0 -- -- 61
2019-06-03 15:00:00 25.1 8 Nordeste 15 Nordeste 0 -- -- 61
2019-06-03 14:00:00 24.7 8 Nordeste 15 Nordeste 0 -- -- 62
2019-06-03 13:00:00 25.2 8 Nordeste 13 Nordeste 0 -- -- 58
2019-06-03 12:00:00 25.7 5 Este 12 Este 0 -- -- 55
2019-06-03 11:00:00 28.4 8 Sudeste 14 Nordeste 0 -- -- 30
2019-06-03 10:00:00 26.4 6 Este 12 Nordeste 0 -- -- 46
2019-06-03 09:00:00 25.4 6 Sudeste 18 Sudoeste 0 -- -- 33
2019-06-03 08:00:00 22.1 13 Sudoeste 21 Sudoeste 0 -- -- 37
2019-06-03 07:00:00 21.7 14 Sudoeste 22 Sudoeste 0 -- -- 37
2019-06-03 06:00:00 21.4 14 Sudoeste 21 Sudoeste 0 -- -- 40
2019-06-03 05:00:00 22.3 13 Sudoeste 23 Sudoeste 0 -- -- 35
2019-06-03 04:00:00 23.3 10 Sudoeste 23 Sudoeste 0 -- -- 28
2019-06-03 03:00:00 20.8 12 Sudoeste 23 Sudoeste 0 -- -- 45
2019-06-03 02:00:00 21.6 9 Sur 24 Sur 0 -- -- 39
2019-06-03 01:00:00 22.5 8 Sudoeste 17 Sudoeste 0 -- -- 39
2019-06-03 00:00:00 22.3 12 Sudoeste 23 Sudoeste 0 -- -- 42
2019-06-02 23:00:00 23.6 14 Sudoeste 21 Sudoeste 0 -- -- 39
2019-06-02 22:00:00 22 12 Sudoeste 19 Sudoeste 0 -- -- 44
2019-06-02 21:00:00 21.7 6 Sur 10 Este 0 -- -- 57
2019-06-02 20:00:00 20.7 2 Este 6 Nordeste 0 -- -- 82
2019-06-02 19:00:00 22.4 4 Nordeste 9 Norte 0 -- -- 75
2019-06-02 18:00:00 22.4 5 Nordeste 11 Este 0 -- -- 76
2019-06-02 17:00:00 24 8 Nordeste 12 Este 0 -- -- 70
2019-06-02 16:00:00 24.4 6 Nordeste 13 Nordeste 0 -- -- 68
2019-06-02 15:00:00 24.3 7 Nordeste 13 Este 0 -- -- 68
2019-06-02 14:00:00 23.2 8 Nordeste 15 Nordeste 0 -- -- 72
2019-06-02 13:00:00 23.4 9 Nordeste 14 Nordeste 0 -- -- 71
2019-06-02 12:00:00 23.1 8 Este 14 Nordeste 0 -- -- 72
2019-06-02 11:00:00 22.8 6 Este 14 Este 0 -- -- 73
2019-06-02 10:00:00 21 5 Este 10 Nordeste 0 -- -- 80
2019-06-02 09:00:00 17.8 3 Sudoeste 8 Este 0 -- -- 90
2019-06-02 08:00:00 17.8 2 Este 19 Sudoeste 0 -- -- 88
2019-06-02 07:00:00 19.9 10 Sudoeste 18 Sudoeste 0 -- -- 69
2019-06-02 06:00:00 18.8 10 Sudoeste 14 Sudoeste 0 -- -- 68
2019-06-02 05:00:00 18.8 7 Sudoeste 18 Sudoeste 0 -- -- 66
2019-06-02 04:00:00 19.2 8 Sur 17 Sudoeste 0 -- -- 61
2019-06-02 03:00:00 19.1 11 Sudoeste 16 Sudoeste 0 -- -- 52
2019-06-02 02:00:00 19.8 8 Sudoeste 17 Sudoeste 0 -- -- 50
2019-06-02 01:00:00 18.9 7 Sudoeste 15 Oeste 0 -- -- 63
2019-06-02 00:00:00 18.2 4 Nordeste 15 Sudoeste 0 -- -- 73
2019-06-01 23:00:00 18.6 9 Oeste 13 Sudoeste 0 -- -- 49
2019-06-01 22:00:00 16.9 5 Noroeste 10 Oeste 0 -- -- 83
2019-06-01 21:00:00 17.5 7 Norte 14 Norte 0 -- -- 90
2019-06-01 20:00:00 18.4 12 Norte 19 Norte 0 -- -- 86
2019-06-01 19:00:00 19.3 14 Norte 21 Norte 0 -- -- 81
2019-06-01 18:00:00 20.7 11 Norte 23 Nordeste 0 -- -- 77
2019-06-01 17:00:00 21.2 12 Nordeste 27 Norte 0 -- -- 75
2019-06-01 16:00:00 21.3 13 Nordeste 23 Norte 0 -- -- 74
2019-06-01 15:00:00 21.8 11 Nordeste 20 Nordeste 0 -- -- 73
2019-06-01 14:00:00 21.6 10 Nordeste 18 Este 0 -- -- 74
2019-06-01 13:00:00 21.6 10 Nordeste 17 Nordeste 0 -- -- 75
2019-06-01 12:00:00 19.9 8 Nordeste 14 Nordeste 0 -- -- 83
2019-06-01 11:00:00 18.2 6 Norte 15 Nordeste 0 -- -- 88
2019-06-01 10:00:00 17.4 8 Norte 18 Norte 0 -- -- 91
2019-06-01 09:00:00 18 11 Nordeste 23 Norte 0 -- -- 89
2019-06-01 08:00:00 16.1 10 Norte 18 Noroeste 0 -- -- 94
2019-06-01 07:00:00 15.4 7 Oeste 10 Noroeste 0 -- -- 95
2019-06-01 06:00:00 15.8 5 Oeste 9 Sudoeste 0 -- -- 94
2019-06-01 05:00:00 15.7 5 Oeste 7 Sudoeste 0 -- -- 94
2019-06-01 04:00:00 15.4 3 Oeste 8 Sudoeste 0 -- -- 94
2019-06-01 03:00:00 15.5 4 Oeste 8 Oeste 0 -- -- 93
2019-06-01 02:00:00 15.8 4 Oeste 12 Oeste 0 -- -- 92
2019-06-01 01:00:00 16.3 6 Noroeste 15 Noroeste 0 -- -- 91
2019-06-01 00:00:00 16 9 Norte 18 Norte 0 -- -- 91
2019-05-31 23:00:00 16 9 Norte 19 Norte 0 -- -- 92
2019-05-31 22:00:00 16.3 9 Noroeste 20 Noroeste 0 -- -- 91
2019-05-31 21:00:00 16.8 10 Norte 26 Norte 0 -- -- 90
2019-05-31 20:00:00 17.8 16 Norte 26 Nordeste 0 -- -- 85
2019-05-31 19:00:00 19.1 13 Norte 28 Norte 0 -- -- 81
2019-05-31 18:00:00 19.9 15 Norte 34 Norte 0 -- -- 78
2019-05-31 17:00:00 20.8 22 Norte 34 Nordeste 0 -- -- 73
2019-05-31 16:00:00 21.9 13 Nordeste 30 Nordeste 0 -- -- 70
2019-05-31 15:00:00 21.6 15 Nordeste 28 Nordeste 0 -- -- 70
2019-05-31 14:00:00 21.9 15 Nordeste 29 Norte 0 -- -- 71
2019-05-31 13:00:00 21.6 14 Nordeste 24 Norte 0 -- -- 68
2019-05-31 12:00:00 20.9 13 Nordeste 23 Nordeste 0 -- -- 71
2019-05-31 11:00:00 20.5 14 Nordeste 27 Nordeste 0 -- -- 72
2019-05-31 10:00:00 19.3 14 Norte 22 Norte 0 -- -- 76
2019-05-31 09:00:00 16.7 12 Norte 20 Norte 0 -- -- 88
2019-05-31 08:00:00 16.3 9 Noroeste 18 Oeste 0 -- -- 87
2019-05-31 07:00:00 15.7 10 Noroeste 21 Noroeste 0 -- -- 88
2019-05-31 06:00:00 15.8 9 Norte 17 Norte 0 -- -- 88
2019-05-31 05:00:00 15.4 11 Noroeste 23 Norte 0 -- -- 89
2019-05-31 04:00:00 14.6 10 Norte 24 Norte 0 -- -- 90
2019-05-31 03:00:00 14.5 10 Norte 27 Noroeste 0 -- -- 87
2019-05-31 02:00:00 14.8 13 Norte 25 Norte 0 -- -- 89
2019-05-31 01:00:00 14.9 10 Norte 22 Norte 0 -- -- 89
2019-05-31 00:00:00 14.8 8 Norte 22 Norte 0 -- -- 87
2019-05-30 23:00:00 15.2 7 Noroeste 21 Noroeste 0 -- -- 88
2019-05-30 22:00:00 15.6 12 Norte 26 Norte 0 -- -- 86
2019-05-30 21:00:00 16.3 8 Norte 21 Norte 0 -- -- 84
2019-05-30 20:00:00 17.2 15 Norte 32 Norte 0 -- -- 81
2019-05-30 19:00:00 18.2 23 Norte 35 Norte 0 -- -- 78
2019-05-30 18:00:00 19.4 16 Norte 33 Norte 0 -- -- 73
2019-05-30 17:00:00 20.6 14 Nordeste 32 Nordeste 0 -- -- 69
2019-05-30 16:00:00 21 13 Nordeste 23 Nordeste 0 -- -- 68
2019-05-30 15:00:00 21 15 Nordeste 23 Norte 0 -- -- 67
2019-05-30 14:00:00 20.9 12 Nordeste 21 Nordeste 0 -- -- 69
2019-05-30 13:00:00 21 12 Nordeste 23 Nordeste 0 -- -- 66
2019-05-30 12:00:00 20.3 10 Nordeste 19 Nordeste 0 -- -- 68
2019-05-30 11:00:00 19.1 10 Nordeste 18 Norte 0 -- -- 75
2019-05-30 10:00:00 17.2 8 Nordeste 15 Noroeste 0 -- -- 81
2019-05-30 09:00:00 16 5 Norte 11 Sudoeste 0 -- -- 83
2019-05-30 08:00:00 15.3 7 Oeste 12 Sudoeste 0 -- -- 86
2019-05-30 07:00:00 15.4 6 Sudoeste 15 Sudoeste 0 -- -- 87
2019-05-30 06:00:00 15.4 6 Oeste 11 Sudoeste 0 -- -- 86
2019-05-30 05:00:00 15.6 5 Sudoeste 14 Sudoeste 0 -- -- 85
2019-05-30 04:00:00 15.6 9 Sudoeste 13 Sudoeste 0 -- -- 86
2019-05-30 03:00:00 15.9 6 Oeste 13 Noroeste 0 -- -- 84
2019-05-30 02:00:00 16.1 6 Oeste 13 Noroeste 0 -- -- 84
2019-05-30 01:00:00 16.2 5 Norte 12 Norte 0 -- -- 83
2019-05-30 00:00:00 16.2 6 Oeste 13 Nordeste 0 -- -- 84
2019-05-29 23:00:00 16.1 7 Noroeste 17 Oeste 0 -- -- 83
2019-05-29 22:00:00 16 10 Noroeste 20 Norte 0 -- -- 83
2019-05-29 21:00:00 16.6 8 Noroeste 19 Noroeste 0 -- -- 81
2019-05-29 20:00:00 17.1 14 Norte 27 Norte 0 -- -- 80
2019-05-29 19:00:00 18.4 13 Norte 22 Norte 0 -- -- 76
2019-05-29 18:00:00 19.4 13 Nordeste 22 Norte 0 -- -- 71
2019-05-29 17:00:00 20.1 13 Nordeste 20 Nordeste 0 -- -- 70
2019-05-29 16:00:00 20.7 12 Nordeste 23 Norte 0 -- -- 67
2019-05-29 15:00:00 20.8 12 Nordeste 23 Nordeste 0 -- -- 67
2019-05-29 14:00:00 20.3 13 Nordeste 21 Nordeste 0 -- -- 68
2019-05-29 13:00:00 19.7 12 Nordeste 19 Nordeste 0 -- -- 71
2019-05-29 12:00:00 18.3 10 Nordeste 19 Norte 0 -- -- 77
2019-05-29 11:00:00 16.8 9 Nordeste 14 Norte 0 -- -- 84
2019-05-29 10:00:00 16.2 7 Nordeste 10 Nordeste 0 -- -- 89
2019-05-29 09:00:00 15.9 3 Noroeste 10 Nordeste 0 -- -- 90
2019-05-29 08:00:00 15.5 3 Nordeste 13 Sudoeste 0 -- -- 90
2019-05-29 07:00:00 15.3 5 Oeste 13 Oeste 0 -- -- 90
2019-05-29 06:00:00 15.1 10 Sudoeste 18 Oeste 0 -- -- 91
2019-05-29 05:00:00 15.4 6 Oeste 12 Sudoeste 0 -- -- 89
2019-05-29 04:00:00 15.8 3 Sur 10 Sudoeste 0 -- -- 89
2019-05-29 03:00:00 15.8 7 Sudoeste 17 Sudoeste 0 -- -- 89
2019-05-29 02:00:00 16.1 6 Sudoeste 9 Sur 0 -- -- 92
2019-05-29 01:00:00 16.2 4 Sudoeste 9 Sudoeste 0.2 -- -- 94
2019-05-29 00:00:00 16 5 Sur 12 Nordeste 0.6 -- -- 96
2019-05-28 23:00:00 16.4 5 Nordeste 10 Nordeste 0.2 -- -- 96
2019-05-28 22:00:00 16.8 5 Este 16 Este 0 -- -- 93
2019-05-28 21:00:00 17.5 8 Sudoeste 13 Este 0 -- -- 84
2019-05-28 20:00:00 18.1 8 Este 19 Nordeste 0 -- -- 80
2019-05-28 19:00:00 19.2 12 Este 20 Este 0 -- -- 76
2019-05-28 18:00:00 19.6 10 Nordeste 20 Este 0 -- -- 74
2019-05-28 17:00:00 20.4 10 Este 24 Este 0 -- -- 72
2019-05-28 16:00:00 20.5 15 Este 24 Este 0 -- -- 72
2019-05-28 15:00:00 19.6 8 Sudeste 24 Este 0 -- -- 74
2019-05-28 14:00:00 20 14 Este 22 Este 0 -- -- 76
2019-05-28 13:00:00 20.9 15 Este 26 Este 0 -- -- 71
2019-05-28 12:00:00 20.5 16 Este 24 Este 0 -- -- 73
2019-05-28 11:00:00 18.5 7 Sudeste 17 Este 0 -- -- 76
2019-05-28 10:00:00 17.4 9 Este 15 Nordeste 0 -- -- 86
2019-05-28 09:00:00 16.8 5 Este 10 Este 0 -- -- 87
2019-05-28 08:00:00 16.4 4 Sudeste 11 Sudoeste 0 -- -- 91
2019-05-28 07:00:00 16.4 5 Sur 14 Sudoeste 0 -- -- 91
2019-05-28 06:00:00 16.4 4 Sur 15 Sudoeste 0 -- -- 90
2019-05-28 05:00:00 16.4 12 Sudoeste 16 Sudoeste 0 -- -- 89
2019-05-28 04:00:00 16.1 6 Sudoeste 14 Sudoeste 0 -- -- 90
2019-05-28 03:00:00 16 12 Sudoeste 14 Sudoeste 0 -- -- 90
2019-05-28 02:00:00 16.3 0 Calma 9 Sudoeste 0 -- -- 90
2019-05-28 01:00:00 16.1 4 Sudoeste 6 Sudoeste 0 -- -- 91
2019-05-28 00:00:00 16.5 3 Sudoeste 10 Sudoeste 0 -- -- 89
2019-05-27 23:00:00 17.1 7 Sudoeste 9 Sudoeste 0 -- -- 87
2019-05-27 22:00:00 17.2 6 Nordeste 11 Norte 0 -- -- 86
2019-05-27 21:00:00 17.6 5 Nordeste 12 Este 0 -- -- 85
2019-05-27 20:00:00 18.2 5 Nordeste 13 Nordeste 0 -- -- 87
2019-05-27 19:00:00 18.5 8 Nordeste 14 Nordeste 0 -- -- 85
2019-05-27 18:00:00 19.8 8 Nordeste 18 Nordeste 0 -- -- 81
2019-05-27 17:00:00 21.2 11 Nordeste 20 Nordeste 0 -- -- 75
2019-05-27 16:00:00 21.4 10 Nordeste 20 Nordeste 0 -- -- 72
2019-05-27 15:00:00 21.8 10 Nordeste 19 Este 0 -- -- 71
2019-05-27 14:00:00 21.5 10 Nordeste 19 Este 0 -- -- 73
2019-05-27 13:00:00 21.7 10 Este 19 Este 0 -- -- 71
2019-05-27 12:00:00 20.1 11 Nordeste 15 Este 0 -- -- 75
2019-05-27 11:00:00 20.8 11 Este 17 Este 0 -- -- 75
2019-05-27 10:00:00 19 8 Este 14 Este 0 -- -- 81
2019-05-27 09:00:00 18.3 8 Este 13 Nordeste 0 -- -- 82
2019-05-27 08:00:00 16.1 7 Sudoeste 12 Sudoeste 0 -- -- 90
2019-05-27 07:00:00 15 10 Sudoeste 13 Sudoeste 0 -- -- 93
2019-05-27 06:00:00 15.2 9 Sudoeste 12 Sudoeste 0 -- -- 92
2019-05-27 05:00:00 15.6 10 Sudoeste 12 Sudoeste 0 -- -- 91
2019-05-27 04:00:00 15.5 9 Sudoeste 12 Sudoeste 0 -- -- 92
2019-05-27 03:00:00 15.5 6 Sudoeste 13 Sudoeste 0 -- -- 90
2019-05-27 02:00:00 15.7 10 Sudoeste 17 Sudoeste 0 -- -- 87
2019-05-27 01:00:00 15.9 12 Sudoeste 15 Sudoeste 0 -- -- 87
2019-05-27 00:00:00 16.1 11 Sudoeste 16 Sudoeste 0 -- -- 85
2019-05-26 23:00:00 16.2 6 Sur 18 Oeste 0 -- -- 85
2019-05-26 22:00:00 16.8 10 Sudoeste 14 Sudoeste 0 -- -- 82
2019-05-26 21:00:00 17.5 5 Este 12 Nordeste 0 -- -- 80
2019-05-26 20:00:00 18 8 Nordeste 15 Este 0 -- -- 80
2019-05-26 19:00:00 18.5 9 Nordeste 20 Nordeste 0 -- -- 80
2019-05-26 18:00:00 20 11 Nordeste 22 Nordeste 0 -- -- 73
2019-05-26 17:00:00 21.3 14 Nordeste 21 Nordeste 0 -- -- 66
2019-05-26 16:00:00 20.6 13 Nordeste 21 Este 0 -- -- 68
2019-05-26 15:00:00 19.8 12 Nordeste 24 Este 0 -- -- 75
2019-05-26 14:00:00 20.7 12 Nordeste 24 Nordeste 0 -- -- 73
2019-05-26 13:00:00 22.4 14 Este 24 Nordeste 0 -- -- 63
2019-05-26 12:00:00 22.1 12 Este 24 Este 0 -- -- 64
2019-05-26 11:00:00 20.6 13 Nordeste 22 Nordeste 0 -- -- 71
2019-05-26 10:00:00 19.3 9 Nordeste 16 Este 0 -- -- 74
2019-05-26 09:00:00 18.3 5 Nordeste 9 Nordeste 0 -- -- 77
2019-05-26 08:00:00 16.1 2 Sudoeste 14 Sudoeste 0 -- -- 87
2019-05-26 07:00:00 15.3 9 Sudoeste 12 Sudoeste 0 -- -- 86
2019-05-26 06:00:00 15.6 8 Sudoeste 14 Sudoeste 0 -- -- 82
2019-05-26 05:00:00 16.1 11 Sudoeste 17 Sudoeste 0 -- -- 80
2019-05-26 04:00:00 16.3 5 Oeste 17 Sudoeste 0 -- -- 84
2019-05-26 03:00:00 16.3 8 Sudoeste 16 Sudoeste 0 -- -- 80
2019-05-26 02:00:00 16.1 9 Oeste 17 Sudoeste 0 -- -- 80
2019-05-26 01:00:00 16.2 4 Oeste 15 Norte 0 -- -- 81
2019-05-26 00:00:00 16.3 6 Oeste 13 Oeste 0 -- -- 83
2019-05-25 23:00:00 16.1 4 Oeste 17 Sudoeste 0 -- -- 86
2019-05-25 22:00:00 15.9 10 Sudoeste 16 Sudoeste 0 -- -- 86
2019-05-25 21:00:00 16.5 6 Noroeste 18 Noroeste 0 -- -- 87
2019-05-25 20:00:00 16.8 7 Norte 14 Norte 0 -- -- 85
2019-05-25 19:00:00 18.6 10 Norte 16 Norte 0 -- -- 80
2019-05-25 18:00:00 18.7 10 Nordeste 20 Este 0 -- -- 77
2019-05-25 17:00:00 19.2 11 Nordeste 20 Norte 0 -- -- 79
2019-05-25 16:00:00 19.2 9 Nordeste 19 Este 0 -- -- 81
2019-05-25 15:00:00 19.1 10 Nordeste 21 Este 0 -- -- 82
2019-05-25 14:00:00 18.8 9 Este 21 Este 0 -- -- 86
2019-05-25 13:00:00 18.3 12 Nordeste 19 Sudoeste 0 -- -- 90
2019-05-25 12:00:00 17.3 6 Sudoeste 22 Este 0.2 -- -- 89
2019-05-25 11:00:00 17.9 6 Este 17 Este 0 -- -- 91
2019-05-25 10:00:00 16.5 5 Sudeste 17 Sudoeste 0 -- -- 95
2019-05-25 09:00:00 15.9 6 Sudeste 20 Sudoeste 0.6 -- -- 96
2019-05-25 08:00:00 16 7 Sur 18 Sudoeste 0 -- -- 94
2019-05-25 07:00:00 16 10 Sudoeste 15 Sudoeste 0 -- -- 91
2019-05-25 06:00:00 16 12 Sudoeste 17 Este 0 -- -- 91
2019-05-25 05:00:00 16.5 11 Sur 19 Sudoeste 0 -- -- 87
2019-05-25 04:00:00 16.4 6 Sudeste 21 Sudoeste 0 -- -- 88
2019-05-25 03:00:00 16.2 10 Sudoeste 20 Sudoeste 0 -- -- 85
2019-05-25 02:00:00 15.7 11 Sudoeste 14 Sur 0 -- -- 86
2019-05-25 01:00:00 16.4 6 Sur 12 Sudoeste 0 -- -- 86
2019-05-25 00:00:00 16.6 3 Sudeste 14 Este 0 -- -- 86
2019-05-24 23:00:00 16.6 5 Este 10 Este 0 -- -- 88
2019-05-24 22:00:00 16.9 6 Este 12 Este 0 -- -- 87
2019-05-24 21:00:00 17.3 5 Este 14 Este 0 -- -- 88
2019-05-24 20:00:00 17.8 9 Este 18 Este 0 -- -- 85
2019-05-24 19:00:00 18.5 9 Este 19 Nordeste 0 -- -- 82
2019-05-24 18:00:00 19.1 10 Este 20 Nordeste 0 -- -- 75
2019-05-24 17:00:00 19.9 13 Este 24 Este 0 -- -- 76
2019-05-24 16:00:00 20.5 15 Este 26 Este 0 -- -- 73
2019-05-24 15:00:00 20.7 19 Este 31 Este 0 -- -- 73
2019-05-24 14:00:00 21.8 16 Este 28 Este 0 -- -- 68
2019-05-24 13:00:00 22.4 16 Este 28 Este 0 -- -- 62
2019-05-24 12:00:00 21.5 16 Este 27 Este 0 -- -- 63
2019-05-24 11:00:00 20.8 15 Este 23 Este 0 -- -- 69
2019-05-24 10:00:00 17.4 6 Este 13 Sur 0 -- -- 81
2019-05-24 09:00:00 16.7 8 Sur 15 Sudoeste 0 -- -- 82
2019-05-24 08:00:00 16.3 6 Este 22 Sudoeste 0 -- -- 84
2019-05-24 07:00:00 15.7 12 Sudoeste 16 Sudoeste 0 -- -- 83
2019-05-24 06:00:00 14.9 7 Oeste 10 Oeste 0 -- -- 85
2019-05-24 05:00:00 15.5 5 Sudoeste 18 Sudoeste 0 -- -- 87
2019-05-24 04:00:00 15.8 12 Sudoeste 19 Sudoeste 0 -- -- 81
2019-05-24 03:00:00 16.2 12 Sudoeste 21 Sudoeste 0 -- -- 80
2019-05-24 02:00:00 16.1 6 Sudoeste 19 Sudoeste 0 -- -- 79
2019-05-24 01:00:00 16.5 5 Este 25 Sudoeste 0 -- -- 83
2019-05-24 00:00:00 15.7 13 Sudoeste 18 Sudoeste 0 -- -- 81
2019-05-23 23:00:00 15.5 10 Sudoeste 15 Sudoeste 0 -- -- 82
2019-05-23 22:00:00 16 7 Sudoeste 15 Nordeste 0 -- -- 80
2019-05-23 21:00:00 17.1 9 Sudoeste 16 Sudoeste 0 -- -- 78
2019-05-23 20:00:00 17.7 10 Nordeste 15 Nordeste 0 -- -- 82
2019-05-23 19:00:00 18.7 7 Este 18 Este 0 -- -- 77
2019-05-23 18:00:00 19.2 10 Nordeste 20 Norte 0 -- -- 66
2019-05-23 17:00:00 19.6 8 Nordeste 21 Este 0 -- -- 67
2019-05-23 16:00:00 20 13 Nordeste 21 Nordeste 0 -- -- 71
2019-05-23 15:00:00 19.6 14 Nordeste 22 Nordeste 0 -- -- 72
2019-05-23 14:00:00 21.4 13 Nordeste 28 Este 0 -- -- 66
2019-05-23 13:00:00 20.6 9 Este 25 Este 0 -- -- 70
2019-05-23 12:00:00 19.2 13 Este 23 Nordeste 0 -- -- 69
2019-05-23 11:00:00 18.3 8 Nordeste 22 Sudoeste 0 -- -- 76
2019-05-23 10:00:00 17.5 10 Sudoeste 18 Sudoeste 0 -- -- 75
2019-05-23 09:00:00 17.1 6 Sudoeste 24 Sudeste 0 -- -- 77
2019-05-23 08:00:00 17.1 13 Sudeste 26 Sudoeste 0 -- -- 73
2019-05-23 07:00:00 16.3 11 Sudoeste 23 Sudoeste 0 -- -- 81
2019-05-23 06:00:00 16.2 6 Sur 13 Sudoeste 0 -- -- 88
2019-05-23 05:00:00 16.5 9 Sudoeste 25 Sudoeste 0.2 -- -- 84
2019-05-23 04:00:00 16.7 8 Sur 18 Este 0 -- -- 81
2019-05-23 03:00:00 16.7 6 Sudoeste 18 Sudoeste 0 -- -- 86
2019-05-23 02:00:00 16.5 5 Nordeste 15 Oeste 0 -- -- 89
2019-05-23 01:00:00 17 5 Este 24 Sudoeste 0 -- -- 80
2019-05-23 00:00:00 16.9 4 Noroeste 15 Sudoeste 0 -- -- 81
2019-05-22 23:00:00 16.9 11 Sudoeste 17 Sudoeste 0 -- -- 78
2019-05-22 22:00:00 16.4 9 Nordeste 17 Nordeste -- -- -- 89
2019-05-22 21:00:00 16.6 8 Nordeste 14 Nordeste 0 -- -- 86
2019-05-22 20:00:00 17.3 7 Norte 17 Norte 0 -- -- 84
2019-05-22 19:00:00 18.1 8 Nordeste 21 Nordeste 0 -- -- 77
2019-05-22 18:00:00 19 11 Nordeste 21 Nordeste 0 -- -- 73
2019-05-22 17:00:00 19.3 14 Nordeste 22 Nordeste 0 -- -- 73
2019-05-22 16:00:00 19.6 13 Nordeste 27 Nordeste 0 -- -- 72
2019-05-22 15:00:00 19.5 15 Nordeste 27 Nordeste 0 -- -- 73
2019-05-22 14:00:00 19.7 13 Nordeste 25 Nordeste 0.2 -- -- 78
2019-05-22 13:00:00 20.9 11 Nordeste 23 Nordeste 0 -- -- 67
2019-05-22 12:00:00 21.1 13 Nordeste 24 Este 0 -- -- 73
2019-05-22 11:00:00 18.1 9 Norte 18 Nordeste 0 -- -- 87
2019-05-22 10:00:00 16.2 6 Nordeste 24 Nordeste 0.2 -- -- 95
2019-05-22 09:00:00 17.3 3 Sudoeste 14 Sudoeste 0 -- -- 75
2019-05-22 08:00:00 16.6 7 Sudoeste 10 Sudoeste 0 -- -- 82
2019-05-22 07:00:00 16.6 4 Sudoeste 23 Sudoeste 0 -- -- 79
2019-05-22 06:00:00 16.4 7 Sur 22 Sudoeste 0 -- -- 88
2019-05-22 05:00:00 16.4 6 Sudoeste 15 Sudoeste 0 -- -- 88
2019-05-22 04:00:00 16.5 5 Nordeste 13 Sudeste 0 -- -- 91
2019-05-22 03:00:00 16.5 13 Sudoeste 19 Sudoeste 0 -- -- 83
2019-05-22 02:00:00 16.6 5 Norte 11 Norte 0 -- -- 85
2019-05-22 01:00:00 16.6 6 Sudoeste 17 Oeste 0 -- -- 86
2019-05-22 00:00:00 16.4 4 Noroeste 14 Oeste 0 -- -- 88
2019-05-21 23:00:00 16.5 4 Este 10 Norte 0 -- -- 88
2019-05-21 22:00:00 16.6 6 Norte 13 Norte 0 -- -- 83
2019-05-21 21:00:00 17.1 5 Norte 12 Norte 0 -- -- 85
2019-05-21 20:00:00 17.3 3 Norte 14 Norte 0 -- -- 80
2019-05-21 19:00:00 18.1 9 Nordeste 19 Este 0 -- -- 76
2019-05-21 18:00:00 19.7 13 Este 22 Este 0 -- -- 70
2019-05-21 17:00:00 19.1 9 Este 22 Este 0 -- -- 74
2019-05-21 16:00:00 19.3 9 Este 27 Este 0 -- -- 67
2019-05-21 15:00:00 20.4 13 Este 24 Este 0 -- -- 67
2019-05-21 14:00:00 19.9 21 Este 27 Este 0 -- -- 67
2019-05-21 13:00:00 19.8 15 Este 28 Nordeste 0 -- -- 76
2019-05-21 12:00:00 19 12 Este 24 Este 0 -- -- 76
2019-05-21 11:00:00 19 15 Este 24 Este 0 -- -- 78
2019-05-21 10:00:00 17.2 6 Sudeste 12 Sudeste 0 -- -- 81
2019-05-21 09:00:00 16.7 6 Sudoeste 12 Sudoeste 0 -- -- 79
2019-05-21 08:00:00 16 5 Sudoeste 16 Sudoeste 0 -- -- 79
2019-05-21 07:00:00 16 14 Sudoeste 22 Sudoeste 0 -- -- 79
2019-05-21 06:00:00 15 10 Sudoeste 19 Sudoeste 0 -- -- 79
2019-05-21 05:00:00 14.9 14 Sudoeste 18 Sudoeste 0 -- -- 81
2019-05-21 04:00:00 14.6 14 Sudoeste 18 Sudoeste 0 -- -- 84
2019-05-21 03:00:00 15.2 10 Sudoeste 15 Sudoeste 0 -- -- 82
2019-05-21 02:00:00 15.3 10 Sudoeste 14 Sudoeste 0 -- -- 84
2019-05-21 01:00:00 15.6 7 Sudoeste 11 Sudoeste 0 -- -- 86
2019-05-21 00:00:00 16 4 Nordeste 11 Sudoeste 0.2 -- -- 86
2019-05-20 23:00:00 16.4 5 Sur 10 Sudoeste 0.2 -- -- 90
2019-05-20 22:00:00 16.6 9 Norte 14 Norte 0 -- -- 86
2019-05-20 21:00:00 16.8 5 Nordeste 13 Nordeste 0 -- -- 79
2019-05-20 20:00:00 17.3 9 Nordeste 18 Nordeste 0 -- -- 80
2019-05-20 19:00:00 17.6 10 Nordeste 20 Nordeste 0 -- -- 81
2019-05-20 18:00:00 19.8 11 Nordeste 22 Este 0 -- -- 65
2019-05-20 17:00:00 20.8 14 Nordeste 24 Nordeste 0 -- -- 63
2019-05-20 16:00:00 19.5 9 Este 22 Nordeste 0 -- -- 60
2019-05-20 15:00:00 19.6 12 Nordeste 24 Nordeste 0 -- -- 71
2019-05-20 14:00:00 20.4 13 Este 24 Nordeste 0 -- -- 72
2019-05-20 13:00:00 22 17 Este 28 Este 0 -- -- 63
2019-05-20 12:00:00 21 15 Nordeste 23 Nordeste 0 -- -- 72
2019-05-20 11:00:00 19.5 13 Nordeste 20 Este 0 -- -- 63
2019-05-20 10:00:00 17.7 4 Norte 12 Sudoeste 0 -- -- 67
2019-05-20 09:00:00 16.5 7 Sudoeste 15 Sudoeste 0 -- -- 77
2019-05-20 08:00:00 16.2 4 Oeste 21 Sudoeste 0 -- -- 72
2019-05-20 07:00:00 16 12 Sudoeste 17 Sudoeste 0 -- -- 76
2019-05-20 06:00:00 15.8 6 Sudoeste 25 Sudoeste 0 -- -- 81
2019-05-20 05:00:00 15.3 6 Este 14 Nordeste 0 -- -- 86
2019-05-20 04:00:00 15.4 2 Sudeste 10 Sudeste 0 -- -- 88
2019-05-20 03:00:00 15.4 4 Noroeste 13 Sudoeste 0 -- -- 87
2019-05-20 02:00:00 15.6 11 Sudoeste 16 Sudoeste 0 -- -- 82
2019-05-20 01:00:00 15.6 5 Noroeste 15 Norte 0 -- -- 88
2019-05-20 00:00:00 15.9 4 Noroeste 15 Sudoeste 0 -- -- 82
2019-05-19 23:00:00 16 8 Sudoeste 13 Nordeste 0 -- -- 89
2019-05-19 22:00:00 16.2 6 Noroeste 15 Sudoeste 0 -- -- 77
2019-05-19 21:00:00 16.5 3 Norte 15 Norte 0 -- -- 82
2019-05-19 20:00:00 17.5 5 Norte 18 Nordeste 0 -- -- 72
2019-05-19 19:00:00 17.6 6 Nordeste 13 Norte 0 -- -- 81
2019-05-19 18:00:00 17.3 10 Nordeste 15 Nordeste 0 -- -- 85
2019-05-19 17:00:00 17.5 7 Este 14 Nordeste 0 -- -- 84
2019-05-19 16:00:00 16.9 6 Sur 20 Este 0.2 -- -- 86
2019-05-19 15:00:00 18 6 Noroeste 17 Norte 0 -- -- 76
2019-05-19 14:00:00 18.1 11 Nordeste 18 Norte 0 -- -- 80
2019-05-19 13:00:00 17.7 9 Este 20 Este 0 -- -- 80
2019-05-19 12:00:00 16.9 12 Este 19 Este 0 -- -- 85
2019-05-19 11:00:00 16.4 7 Sur 19 Este 0 -- -- 81
2019-05-19 10:00:00 16 5 Sur 15 Sudoeste 0 -- -- 85
2019-05-19 09:00:00 15.7 6 Sudoeste 19 Este 0 -- -- 84
2019-05-19 08:00:00 15.8 6 Sudeste 14 Sudoeste 0 -- -- 82
2019-05-19 07:00:00 15.8 6 Sudeste 19 Este 0 -- -- 78
2019-05-19 06:00:00 15.7 6 Este 21 Sudoeste 0 -- -- 84
2019-05-19 05:00:00 15.7 8 Sudeste 18 Este 0 -- -- 78
2019-05-19 04:00:00 15.9 9 Sudeste 25 Sudoeste 0 -- -- 81
2019-05-19 03:00:00 15.9 7 Sur 15 Sudoeste 0 -- -- 80
2019-05-19 02:00:00 15.7 12 Este 19 Nordeste 0 -- -- 81
2019-05-19 01:00:00 16 6 Sudeste 13 Este 0 -- -- 81
2019-05-19 00:00:00 16 7 Este 20 Este 0 -- -- 81
2019-05-18 23:00:00 16.1 10 Este 17 Este 0 -- -- 81
2019-05-18 22:00:00 16.1 8 Este 13 Nordeste 0 -- -- 83
2019-05-18 21:00:00 16.2 8 Este 17 Este 0 -- -- 81
2019-05-18 20:00:00 16.9 12 Nordeste 21 Este 0 -- -- 81
2019-05-18 19:00:00 17.6 14 Este 20 Nordeste 0 -- -- 78
2019-05-18 18:00:00 18.1 15 Este 26 Este 0 -- -- 72
2019-05-18 17:00:00 18 17 Este 30 Este 0 -- -- 75
2019-05-18 16:00:00 18.8 14 Este 27 Este 0 -- -- 74
2019-05-18 15:00:00 18.4 17 Este 26 Nordeste 0 -- -- 76
2019-05-18 14:00:00 18.1 16 Este 26 Este 0 -- -- 77
2019-05-18 13:00:00 17.2 10 Sudeste 23 Este 0 -- -- 78
2019-05-18 12:00:00 16.7 9 Sur 22 Este 0 -- -- 79
2019-05-18 11:00:00 16.8 12 Este 26 Este 0 -- -- 80
2019-05-18 10:00:00 16.7 14 Este 25 Este 0 -- -- 80
2019-05-18 09:00:00 16.4 13 Este 22 Este 0 -- -- 85
2019-05-18 08:00:00 15.6 11 Sudeste 26 Este 0 -- -- 90
2019-05-18 07:00:00 15.8 13 Este 22 Sudeste 0 -- -- 90
2019-05-18 06:00:00 15.7 8 Sur 22 Sudoeste 0 -- -- 87
2019-05-18 05:00:00 15.7 8 Sudoeste 17 Este 0 -- -- 88
2019-05-18 04:00:00 15.8 11 Este 22 Este 0 -- -- 90
2019-05-18 03:00:00 16.1 10 Sudeste 20 Sudeste 0 -- -- 88
2019-05-18 02:00:00 16.1 11 Sudeste 24 Este 0 -- -- 88
2019-05-18 01:00:00 16.2 16 Este 25 Este 0 -- -- 93
2019-05-18 00:00:00 16.1 10 Sudeste 22 Este 0 -- -- 89
2019-05-17 23:00:00 16.2 10 Este 27 Este 0 -- -- 92
2019-05-17 22:00:00 16.4 8 Sudeste 24 Sudeste 0 -- -- 92
2019-05-17 21:00:00 16.5 12 Sudeste 24 Este 0 -- -- 94
2019-05-17 20:00:00 16.8 12 Sudeste 25 Sudeste 0 -- -- 91
2019-05-17 19:00:00 17 13 Sudeste 22 Sudeste 0 -- -- 91
2019-05-17 18:00:00 17.3 12 Sur 24 Este 0 -- -- 89
2019-05-17 17:00:00 17.4 15 Sudeste 26 Sudeste 0 -- -- 89
2019-05-17 16:00:00 17.8 16 Sudeste 26 Sudeste 0 -- -- 86
2019-05-17 15:00:00 18.5 16 Este 28 Este 0 -- -- 86
2019-05-17 14:00:00 18.6 14 Este 29 Nordeste 0 -- -- 86
2019-05-17 13:00:00 19.4 17 Este 31 Este 0 -- -- 82
2019-05-17 12:00:00 20 17 Este 30 Este 0 -- -- 80
2019-05-17 11:00:00 18.3 14 Sudeste 26 Sudeste 0 -- -- 85
2019-05-17 10:00:00 17.3 13 Este 25 Este 0 -- -- 91
2019-05-17 09:00:00 17 11 Sudeste 22 Sudeste 0 -- -- 92
2019-05-17 08:00:00 16.7 10 Sudeste 22 Este 0 -- -- 93
2019-05-17 07:00:00 16.7 11 Este 21 Sudeste 0 -- -- 94
2019-05-17 06:00:00 16.7 13 Sudeste 22 Este 0 -- -- 92
2019-05-17 05:00:00 16.9 12 Sudeste 22 Este 0 -- -- 93
2019-05-17 04:00:00 17 13 Este 26 Este 0 -- -- 96
2019-05-17 03:00:00 17.2 8 Sudeste 20 Este 0 -- -- 95
2019-05-17 02:00:00 17.6 10 Sudeste 19 Sur 0 -- -- 91
2019-05-17 01:00:00 17.6 8 Sur 19 Sudoeste 0 -- -- 91
2019-05-17 00:00:00 17.4 12 Sudoeste 20 Sudoeste 0 -- -- 85